sensor_id;sensor_type;location;lat;lon;timestamp;P1;durP1;ratioP1;P2;durP2;ratioP2
8652;SDS011;4364;52.426;9.424;2023-08-12T00:00:09;8.50;;;5.17;;
8652;SDS011;4364;52.426;9.424;2023-08-12T00:02:41;7.63;;;5.30;;
8652;SDS011;4364;52.426;9.424;2023-08-12T00:05:09;12.23;;;5.50;;
8652;SDS011;4364;52.426;9.424;2023-08-12T00:07:39;6.83;;;5.20;;
8652;SDS011;4364;52.426;9.424;2023-08-12T00:10:08;9.10;;;5.43;;
8652;SDS011;4364;52.426;9.424;2023-08-12T00:12:35;8.00;;;5.33;;
8652;SDS011;4364;52.426;9.424;2023-08-12T00:15:03;9.33;;;5.30;;
8652;SDS011;4364;52.426;9.424;2023-08-12T00:17:32;9.93;;;5.10;;
8652;SDS011;4364;52.426;9.424;2023-08-12T00:19:59;9.13;;;5.37;;
8652;SDS011;4364;52.426;9.424;2023-08-12T00:22:26;6.93;;;4.77;;
8652;SDS011;4364;52.426;9.424;2023-08-12T00:24:52;6.60;;;4.50;;
8652;SDS011;4364;52.426;9.424;2023-08-12T00:27:18;7.70;;;5.00;;
8652;SDS011;4364;52.426;9.424;2023-08-12T00:29:45;9.53;;;5.53;;
8652;SDS011;4364;52.426;9.424;2023-08-12T00:32:11;9.77;;;5.53;;
8652;SDS011;4364;52.426;9.424;2023-08-12T00:34:38;9.47;;;5.13;;
8652;SDS011;4364;52.426;9.424;2023-08-12T00:37:04;9.87;;;5.20;;
8652;SDS011;4364;52.426;9.424;2023-08-12T00:39:31;9.13;;;5.40;;
8652;SDS011;4364;52.426;9.424;2023-08-12T00:41:58;7.97;;;4.70;;
8652;SDS011;4364;52.426;9.424;2023-08-12T00:44:24;10.13;;;4.60;;
8652;SDS011;4364;52.426;9.424;2023-08-12T00:46:52;9.37;;;4.93;;
8652;SDS011;4364;52.426;9.424;2023-08-12T00:49:19;9.23;;;5.47;;
8652;SDS011;4364;52.426;9.424;2023-08-12T00:51:45;7.83;;;5.33;;
8652;SDS011;4364;52.426;9.424;2023-08-12T00:54:14;11.33;;;5.43;;
8652;SDS011;4364;52.426;9.424;2023-08-12T00:56:42;8.53;;;4.80;;
8652;SDS011;4364;52.426;9.424;2023-08-12T00:59:09;11.53;;;5.53;;
8652;SDS011;4364;52.426;9.424;2023-08-12T01:01:38;10.73;;;5.60;;
8652;SDS011;4364;52.426;9.424;2023-08-12T01:04:07;10.77;;;5.43;;
8652;SDS011;4364;52.426;9.424;2023-08-12T01:06:34;8.67;;;4.80;;
8652;SDS011;4364;52.426;9.424;2023-08-12T01:09:01;6.83;;;5.13;;
8652;SDS011;4364;52.426;9.424;2023-08-12T01:11:34;7.57;;;5.17;;
8652;SDS011;4364;52.426;9.424;2023-08-12T01:14:12;6.97;;;4.90;;
8652;SDS011;4364;52.426;9.424;2023-08-12T01:16:45;8.13;;;5.20;;
8652;SDS011;4364;52.426;9.424;2023-08-12T01:19:34;7.93;;;4.83;;
8652;SDS011;4364;52.426;9.424;2023-08-12T01:22:02;10.43;;;5.23;;
8652;SDS011;4364;52.426;9.424;2023-08-12T01:24:37;7.90;;;5.60;;
8652;SDS011;4364;52.426;9.424;2023-08-12T01:27:05;7.07;;;4.90;;
8652;SDS011;4364;52.426;9.424;2023-08-12T01:29:34;6.87;;;4.93;;
8652;SDS011;4364;52.426;9.424;2023-08-12T01:34:39;10.30;;;5.03;;
8652;SDS011;4364;52.426;9.424;2023-08-12T01:37:13;7.60;;;5.10;;
8652;SDS011;4364;52.426;9.424;2023-08-12T01:39:44;7.70;;;5.40;;
8652;SDS011;4364;52.426;9.424;2023-08-12T01:42:14;13.33;;;5.90;;
8652;SDS011;4364;52.426;9.424;2023-08-12T01:44:43;12.03;;;5.60;;
8652;SDS011;4364;52.426;9.424;2023-08-12T01:47:09;11.23;;;5.90;;
8652;SDS011;4364;52.426;9.424;2023-08-12T01:49:36;13.20;;;5.60;;
8652;SDS011;4364;52.426;9.424;2023-08-12T01:52:03;11.80;;;5.60;;
8652;SDS011;4364;52.426;9.424;2023-08-12T01:54:30;9.43;;;6.10;;
8652;SDS011;4364;52.426;9.424;2023-08-12T01:57:03;12.53;;;6.50;;
8652;SDS011;4364;52.426;9.424;2023-08-12T01:59:35;8.37;;;5.83;;
8652;SDS011;4364;52.426;9.424;2023-08-12T02:02:02;8.67;;;6.73;;
8652;SDS011;4364;52.426;9.424;2023-08-12T02:04:31;12.67;;;6.50;;
8652;SDS011;4364;52.426;9.424;2023-08-12T02:06:58;10.20;;;6.00;;
8652;SDS011;4364;52.426;9.424;2023-08-12T02:09:24;9.47;;;5.27;;
8652;SDS011;4364;52.426;9.424;2023-08-12T02:11:51;9.50;;;5.90;;
8652;SDS011;4364;52.426;9.424;2023-08-12T02:14:17;9.47;;;5.90;;
8652;SDS011;4364;52.426;9.424;2023-08-12T02:16:44;12.00;;;5.10;;
8652;SDS011;4364;52.426;9.424;2023-08-12T02:19:10;8.37;;;5.47;;
8652;SDS011;4364;52.426;9.424;2023-08-12T02:21:36;9.73;;;5.67;;
8652;SDS011;4364;52.426;9.424;2023-08-12T02:24:03;10.63;;;5.80;;
8652;SDS011;4364;52.426;9.424;2023-08-12T02:26:30;6.77;;;5.00;;
8652;SDS011;4364;52.426;9.424;2023-08-12T02:28:56;11.27;;;5.73;;
8652;SDS011;4364;52.426;9.424;2023-08-12T02:31:23;11.53;;;5.23;;
8652;SDS011;4364;52.426;9.424;2023-08-12T02:33:49;7.27;;;5.13;;
8652;SDS011;4364;52.426;9.424;2023-08-12T02:36:16;6.80;;;4.97;;
8652;SDS011;4364;52.426;9.424;2023-08-12T02:38:43;9.10;;;5.17;;
8652;SDS011;4364;52.426;9.424;2023-08-12T02:41:09;7.47;;;5.07;;
8652;SDS011;4364;52.426;9.424;2023-08-12T02:43:36;9.43;;;5.47;;
8652;SDS011;4364;52.426;9.424;2023-08-12T02:46:03;7.27;;;4.93;;
8652;SDS011;4364;52.426;9.424;2023-08-12T02:48:29;6.63;;;4.83;;
8652;SDS011;4364;52.426;9.424;2023-08-12T02:50:56;9.37;;;5.73;;
8652;SDS011;4364;52.426;9.424;2023-08-12T02:53:23;9.47;;;5.27;;
8652;SDS011;4364;52.426;9.424;2023-08-12T02:55:49;8.83;;;5.27;;
8652;SDS011;4364;52.426;9.424;2023-08-12T02:58:16;11.07;;;5.47;;
8652;SDS011;4364;52.426;9.424;2023-08-12T03:00:42;8.40;;;5.27;;
8652;SDS011;4364;52.426;9.424;2023-08-12T03:03:12;8.70;;;6.00;;
8652;SDS011;4364;52.426;9.424;2023-08-12T03:05:39;9.83;;;6.57;;
8652;SDS011;4364;52.426;9.424;2023-08-12T03:08:05;10.13;;;6.73;;
8652;SDS011;4364;52.426;9.424;2023-08-12T03:10:33;9.30;;;6.30;;
8652;SDS011;4364;52.426;9.424;2023-08-12T03:13:00;12.03;;;7.40;;
8652;SDS011;4364;52.426;9.424;2023-08-12T03:15:27;11.20;;;8.27;;
8652;SDS011;4364;52.426;9.424;2023-08-12T03:17:55;10.73;;;7.30;;
8652;SDS011;4364;52.426;9.424;2023-08-12T03:20:23;10.50;;;8.57;;
8652;SDS011;4364;52.426;9.424;2023-08-12T03:22:49;13.17;;;9.00;;
8652;SDS011;4364;52.426;9.424;2023-08-12T03:25:16;15.67;;;8.20;;
8652;SDS011;4364;52.426;9.424;2023-08-12T03:27:44;10.53;;;8.83;;
8652;SDS011;4364;52.426;9.424;2023-08-12T03:30:11;13.10;;;9.00;;
8652;SDS011;4364;52.426;9.424;2023-08-12T03:32:39;11.17;;;8.67;;
8652;SDS011;4364;52.426;9.424;2023-08-12T03:35:06;14.60;;;8.90;;
8652;SDS011;4364;52.426;9.424;2023-08-12T03:37:34;14.10;;;9.57;;
8652;SDS011;4364;52.426;9.424;2023-08-12T03:40:01;12.17;;;8.77;;
8652;SDS011;4364;52.426;9.424;2023-08-12T03:42:28;13.53;;;9.87;;
8652;SDS011;4364;52.426;9.424;2023-08-12T03:44:56;12.23;;;9.50;;
8652;SDS011;4364;52.426;9.424;2023-08-12T03:47:22;12.30;;;8.20;;
8652;SDS011;4364;52.426;9.424;2023-08-12T03:49:50;12.80;;;10.70;;
8652;SDS011;4364;52.426;9.424;2023-08-12T03:52:17;10.97;;;8.97;;
8652;SDS011;4364;52.426;9.424;2023-08-12T03:54:44;11.87;;;8.67;;
8652;SDS011;4364;52.426;9.424;2023-08-12T03:57:11;13.97;;;10.20;;
8652;SDS011;4364;52.426;9.424;2023-08-12T03:59:38;15.23;;;11.70;;
8652;SDS011;4364;52.426;9.424;2023-08-12T04:02:05;12.77;;;10.90;;
8652;SDS011;4364;52.426;9.424;2023-08-12T04:04:32;11.53;;;10.03;;
8652;SDS011;4364;52.426;9.424;2023-08-12T04:06:59;14.37;;;10.73;;
8652;SDS011;4364;52.426;9.424;2023-08-12T04:09:26;14.20;;;10.03;;
8652;SDS011;4364;52.426;9.424;2023-08-12T04:11:52;13.90;;;12.40;;
8652;SDS011;4364;52.426;9.424;2023-08-12T04:14:19;19.77;;;13.27;;
8652;SDS011;4364;52.426;9.424;2023-08-12T04:16:45;14.60;;;11.33;;
8652;SDS011;4364;52.426;9.424;2023-08-12T04:19:12;18.60;;;13.67;;
8652;SDS011;4364;52.426;9.424;2023-08-12T04:21:38;22.67;;;14.97;;
8652;SDS011;4364;52.426;9.424;2023-08-12T04:24:05;17.47;;;14.33;;
8652;SDS011;4364;52.426;9.424;2023-08-12T04:26:32;18.50;;;15.47;;
8652;SDS011;4364;52.426;9.424;2023-08-12T04:28:59;20.23;;;16.53;;
8652;SDS011;4364;52.426;9.424;2023-08-12T04:31:27;17.57;;;15.67;;
8652;SDS011;4364;52.426;9.424;2023-08-12T04:33:53;24.73;;;17.00;;
8652;SDS011;4364;52.426;9.424;2023-08-12T04:36:22;26.40;;;15.67;;
8652;SDS011;4364;52.426;9.424;2023-08-12T04:38:49;24.93;;;17.97;;
8652;SDS011;4364;52.426;9.424;2023-08-12T04:41:16;23.00;;;18.43;;
8652;SDS011;4364;52.426;9.424;2023-08-12T04:43:43;26.87;;;19.37;;
8652;SDS011;4364;52.426;9.424;2023-08-12T04:46:10;26.20;;;19.37;;
8652;SDS011;4364;52.426;9.424;2023-08-12T04:48:37;24.07;;;19.40;;
8652;SDS011;4364;52.426;9.424;2023-08-12T04:51:04;24.87;;;19.23;;
8652;SDS011;4364;52.426;9.424;2023-08-12T04:53:33;32.00;;;20.23;;
8652;SDS011;4364;52.426;9.424;2023-08-12T04:55:59;24.63;;;20.37;;
8652;SDS011;4364;52.426;9.424;2023-08-12T04:58:26;23.20;;;18.30;;
8652;SDS011;4364;52.426;9.424;2023-08-12T05:00:53;26.23;;;19.53;;
8652;SDS011;4364;52.426;9.424;2023-08-12T05:03:21;28.17;;;20.73;;
8652;SDS011;4364;52.426;9.424;2023-08-12T05:05:50;26.50;;;19.40;;
8652;SDS011;4364;52.426;9.424;2023-08-12T05:08:20;24.57;;;18.17;;
8652;SDS011;4364;52.426;9.424;2023-08-12T05:10:47;28.70;;;20.43;;
8652;SDS011;4364;52.426;9.424;2023-08-12T05:13:15;25.60;;;19.90;;
8652;SDS011;4364;52.426;9.424;2023-08-12T05:15:44;22.73;;;17.73;;
8652;SDS011;4364;52.426;9.424;2023-08-12T05:18:14;27.43;;;20.57;;
8652;SDS011;4364;52.426;9.424;2023-08-12T05:20:41;23.47;;;16.07;;
8652;SDS011;4364;52.426;9.424;2023-08-12T05:23:12;31.47;;;20.90;;
8652;SDS011;4364;52.426;9.424;2023-08-12T05:25:39;26.83;;;20.43;;
8652;SDS011;4364;52.426;9.424;2023-08-12T05:28:07;22.33;;;16.60;;
8652;SDS011;4364;52.426;9.424;2023-08-12T05:30:34;19.83;;;16.17;;
8652;SDS011;4364;52.426;9.424;2023-08-12T05:33:01;26.70;;;19.10;;
8652;SDS011;4364;52.426;9.424;2023-08-12T05:35:32;22.93;;;19.43;;
8652;SDS011;4364;52.426;9.424;2023-08-12T05:37:59;25.33;;;18.73;;
8652;SDS011;4364;52.426;9.424;2023-08-12T05:40:26;26.67;;;19.90;;
8652;SDS011;4364;52.426;9.424;2023-08-12T05:42:53;26.87;;;18.90;;
8652;SDS011;4364;52.426;9.424;2023-08-12T05:45:20;21.83;;;17.43;;
8652;SDS011;4364;52.426;9.424;2023-08-12T05:47:46;25.83;;;19.87;;
8652;SDS011;4364;52.426;9.424;2023-08-12T05:50:13;23.83;;;18.00;;
8652;SDS011;4364;52.426;9.424;2023-08-12T05:52:39;26.13;;;18.87;;
8652;SDS011;4364;52.426;9.424;2023-08-12T05:55:06;19.90;;;15.53;;
8652;SDS011;4364;52.426;9.424;2023-08-12T05:57:33;19.60;;;13.63;;
8652;SDS011;4364;52.426;9.424;2023-08-12T05:59:59;20.63;;;17.10;;
8652;SDS011;4364;52.426;9.424;2023-08-12T06:02:36;20.27;;;15.03;;
8652;SDS011;4364;52.426;9.424;2023-08-12T06:05:03;16.00;;;12.73;;
8652;SDS011;4364;52.426;9.424;2023-08-12T06:07:30;20.73;;;15.93;;
8652;SDS011;4364;52.426;9.424;2023-08-12T06:09:57;22.67;;;17.87;;
8652;SDS011;4364;52.426;9.424;2023-08-12T06:12:23;17.40;;;14.27;;
8652;SDS011;4364;52.426;9.424;2023-08-12T06:14:50;23.30;;;17.60;;
8652;SDS011;4364;52.426;9.424;2023-08-12T06:17:16;25.33;;;17.57;;
8652;SDS011;4364;52.426;9.424;2023-08-12T06:19:43;15.80;;;12.37;;
8652;SDS011;4364;52.426;9.424;2023-08-12T06:22:09;22.33;;;15.00;;
8652;SDS011;4364;52.426;9.424;2023-08-12T06:24:37;18.37;;;12.07;;
8652;SDS011;4364;52.426;9.424;2023-08-12T06:27:03;18.47;;;14.50;;
8652;SDS011;4364;52.426;9.424;2023-08-12T06:29:30;19.50;;;16.00;;
8652;SDS011;4364;52.426;9.424;2023-08-12T06:31:56;26.93;;;16.77;;
8652;SDS011;4364;52.426;9.424;2023-08-12T06:34:23;21.37;;;16.67;;
8652;SDS011;4364;52.426;9.424;2023-08-12T06:36:49;27.00;;;17.80;;
8652;SDS011;4364;52.426;9.424;2023-08-12T06:39:16;15.70;;;13.00;;
8652;SDS011;4364;52.426;9.424;2023-08-12T06:41:42;16.53;;;13.50;;
8652;SDS011;4364;52.426;9.424;2023-08-12T06:44:11;17.77;;;14.20;;
8652;SDS011;4364;52.426;9.424;2023-08-12T06:46:38;14.40;;;12.90;;
8652;SDS011;4364;52.426;9.424;2023-08-12T06:49:04;18.90;;;13.97;;
8652;SDS011;4364;52.426;9.424;2023-08-12T06:51:31;17.50;;;13.67;;
8652;SDS011;4364;52.426;9.424;2023-08-12T06:53:57;18.43;;;12.17;;
8652;SDS011;4364;52.426;9.424;2023-08-12T06:56:24;16.43;;;12.57;;
8652;SDS011;4364;52.426;9.424;2023-08-12T06:58:50;12.70;;;10.90;;
8652;SDS011;4364;52.426;9.424;2023-08-12T07:01:17;17.90;;;13.80;;
8652;SDS011;4364;52.426;9.424;2023-08-12T07:03:43;16.77;;;12.53;;
8652;SDS011;4364;52.426;9.424;2023-08-12T07:06:10;15.33;;;10.97;;
8652;SDS011;4364;52.426;9.424;2023-08-12T07:08:36;19.17;;;13.57;;
8652;SDS011;4364;52.426;9.424;2023-08-12T07:11:03;18.97;;;12.90;;
8652;SDS011;4364;52.426;9.424;2023-08-12T07:13:30;15.40;;;11.87;;
8652;SDS011;4364;52.426;9.424;2023-08-12T07:15:57;17.03;;;11.57;;
8652;SDS011;4364;52.426;9.424;2023-08-12T07:18:24;17.67;;;13.50;;
8652;SDS011;4364;52.426;9.424;2023-08-12T07:20:50;14.70;;;12.20;;
8652;SDS011;4364;52.426;9.424;2023-08-12T07:23:17;13.90;;;11.47;;
8652;SDS011;4364;52.426;9.424;2023-08-12T07:25:45;15.50;;;12.20;;
8652;SDS011;4364;52.426;9.424;2023-08-12T07:28:14;15.17;;;12.03;;
8652;SDS011;4364;52.426;9.424;2023-08-12T07:30:41;13.87;;;11.13;;
8652;SDS011;4364;52.426;9.424;2023-08-12T07:33:07;12.40;;;10.03;;
8652;SDS011;4364;52.426;9.424;2023-08-12T07:35:34;11.67;;;9.10;;
8652;SDS011;4364;52.426;9.424;2023-08-12T07:38:01;23.77;;;12.43;;
8652;SDS011;4364;52.426;9.424;2023-08-12T07:40:28;13.67;;;9.67;;
8652;SDS011;4364;52.426;9.424;2023-08-12T07:42:54;14.17;;;10.20;;
8652;SDS011;4364;52.426;9.424;2023-08-12T07:45:21;14.80;;;10.63;;
8652;SDS011;4364;52.426;9.424;2023-08-12T07:47:49;13.07;;;9.27;;
8652;SDS011;4364;52.426;9.424;2023-08-12T07:50:16;17.73;;;11.93;;
8652;SDS011;4364;52.426;9.424;2023-08-12T07:52:42;15.87;;;11.03;;
8652;SDS011;4364;52.426;9.424;2023-08-12T07:55:09;14.53;;;12.03;;
8652;SDS011;4364;52.426;9.424;2023-08-12T07:57:36;14.73;;;11.37;;
8652;SDS011;4364;52.426;9.424;2023-08-12T08:00:02;14.63;;;10.60;;
8652;SDS011;4364;52.426;9.424;2023-08-12T08:02:29;17.97;;;12.40;;
8652;SDS011;4364;52.426;9.424;2023-08-12T08:04:56;15.43;;;11.80;;
8652;SDS011;4364;52.426;9.424;2023-08-12T08:07:23;14.07;;;11.13;;
8652;SDS011;4364;52.426;9.424;2023-08-12T08:09:50;18.27;;;14.33;;
8652;SDS011;4364;52.426;9.424;2023-08-12T08:12:17;16.47;;;12.90;;
8652;SDS011;4364;52.426;9.424;2023-08-12T08:14:44;17.03;;;11.37;;
8652;SDS011;4364;52.426;9.424;2023-08-12T08:17:11;15.80;;;11.87;;
8652;SDS011;4364;52.426;9.424;2023-08-12T08:19:37;12.20;;;8.80;;
8652;SDS011;4364;52.426;9.424;2023-08-12T08:22:04;16.20;;;10.93;;
8652;SDS011;4364;52.426;9.424;2023-08-12T08:24:31;16.00;;;11.40;;
8652;SDS011;4364;52.426;9.424;2023-08-12T08:26:57;12.47;;;10.03;;
8652;SDS011;4364;52.426;9.424;2023-08-12T08:29:24;17.57;;;11.57;;
8652;SDS011;4364;52.426;9.424;2023-08-12T08:31:51;14.43;;;10.27;;
8652;SDS011;4364;52.426;9.424;2023-08-12T08:34:17;13.97;;;10.80;;
8652;SDS011;4364;52.426;9.424;2023-08-12T08:36:44;15.80;;;10.23;;
8652;SDS011;4364;52.426;9.424;2023-08-12T08:39:10;13.50;;;10.00;;
8652;SDS011;4364;52.426;9.424;2023-08-12T08:41:38;13.47;;;10.10;;
8652;SDS011;4364;52.426;9.424;2023-08-12T08:44:06;14.27;;;10.70;;
8652;SDS011;4364;52.426;9.424;2023-08-12T08:46:34;15.27;;;10.93;;
8652;SDS011;4364;52.426;9.424;2023-08-12T08:49:02;16.27;;;11.30;;
8652;SDS011;4364;52.426;9.424;2023-08-12T08:51:30;15.50;;;10.53;;
8652;SDS011;4364;52.426;9.424;2023-08-12T08:54:03;13.77;;;10.37;;
8652;SDS011;4364;52.426;9.424;2023-08-12T08:56:31;18.37;;;11.93;;
8652;SDS011;4364;52.426;9.424;2023-08-12T08:59:06;16.93;;;11.10;;
8652;SDS011;4364;52.426;9.424;2023-08-12T09:01:33;17.03;;;12.53;;
8652;SDS011;4364;52.426;9.424;2023-08-12T09:04:02;13.13;;;10.90;;
8652;SDS011;4364;52.426;9.424;2023-08-12T09:06:30;15.00;;;10.60;;
8652;SDS011;4364;52.426;9.424;2023-08-12T09:08:58;13.57;;;11.37;;
8652;SDS011;4364;52.426;9.424;2023-08-12T09:11:26;17.73;;;12.33;;
8652;SDS011;4364;52.426;9.424;2023-08-12T09:13:53;18.03;;;10.80;;
8652;SDS011;4364;52.426;9.424;2023-08-12T09:16:20;11.70;;;10.03;;
8652;SDS011;4364;52.426;9.424;2023-08-12T09:18:46;16.57;;;11.97;;
8652;SDS011;4364;52.426;9.424;2023-08-12T09:21:15;11.77;;;9.10;;
8652;SDS011;4364;52.426;9.424;2023-08-12T09:23:42;15.37;;;10.07;;
8652;SDS011;4364;52.426;9.424;2023-08-12T09:26:13;14.63;;;10.97;;
8652;SDS011;4364;52.426;9.424;2023-08-12T09:28:45;16.43;;;10.87;;
8652;SDS011;4364;52.426;9.424;2023-08-12T09:31:33;13.37;;;9.57;;
8652;SDS011;4364;52.426;9.424;2023-08-12T09:34:00;13.60;;;10.47;;
8652;SDS011;4364;52.426;9.424;2023-08-12T09:36:33;13.43;;;11.93;;
8652;SDS011;4364;52.426;9.424;2023-08-12T09:39:00;13.47;;;10.73;;
8652;SDS011;4364;52.426;9.424;2023-08-12T09:41:32;13.57;;;10.63;;
8652;SDS011;4364;52.426;9.424;2023-08-12T09:44:02;15.90;;;11.83;;
8652;SDS011;4364;52.426;9.424;2023-08-12T09:46:29;14.57;;;10.87;;
8652;SDS011;4364;52.426;9.424;2023-08-12T09:48:59;15.43;;;10.10;;
8652;SDS011;4364;52.426;9.424;2023-08-12T09:51:26;14.03;;;11.07;;
8652;SDS011;4364;52.426;9.424;2023-08-12T09:53:53;16.40;;;10.00;;
8652;SDS011;4364;52.426;9.424;2023-08-12T09:56:23;18.40;;;10.73;;
8652;SDS011;4364;52.426;9.424;2023-08-12T09:58:51;12.87;;;9.67;;
8652;SDS011;4364;52.426;9.424;2023-08-12T10:01:19;15.30;;;10.37;;
8652;SDS011;4364;52.426;9.424;2023-08-12T10:03:50;17.83;;;11.07;;
8652;SDS011;4364;52.426;9.424;2023-08-12T10:06:18;11.67;;;9.70;;
8652;SDS011;4364;52.426;9.424;2023-08-12T10:08:46;12.40;;;9.73;;
8652;SDS011;4364;52.426;9.424;2023-08-12T10:11:14;13.03;;;9.73;;
8652;SDS011;4364;52.426;9.424;2023-08-12T10:13:41;14.10;;;10.53;;
8652;SDS011;4364;52.426;9.424;2023-08-12T10:16:09;10.63;;;9.53;;
8652;SDS011;4364;52.426;9.424;2023-08-12T10:18:36;11.20;;;8.93;;
8652;SDS011;4364;52.426;9.424;2023-08-12T10:21:05;13.53;;;9.77;;
8652;SDS011;4364;52.426;9.424;2023-08-12T10:23:36;9.80;;;8.33;;
8652;SDS011;4364;52.426;9.424;2023-08-12T10:26:02;10.77;;;8.70;;
8652;SDS011;4364;52.426;9.424;2023-08-12T10:28:32;10.90;;;8.87;;
8652;SDS011;4364;52.426;9.424;2023-08-12T10:31:04;9.87;;;8.87;;
8652;SDS011;4364;52.426;9.424;2023-08-12T10:33:38;10.67;;;8.93;;
8652;SDS011;4364;52.426;9.424;2023-08-12T10:36:06;10.03;;;8.30;;
8652;SDS011;4364;52.426;9.424;2023-08-12T10:38:33;9.73;;;8.63;;
8652;SDS011;4364;52.426;9.424;2023-08-12T10:41:19;9.83;;;8.83;;
8652;SDS011;4364;52.426;9.424;2023-08-12T10:44:00;11.13;;;9.00;;
8652;SDS011;4364;52.426;9.424;2023-08-12T10:46:36;12.20;;;9.57;;
8652;SDS011;4364;52.426;9.424;2023-08-12T10:51:46;9.80;;;8.27;;
8652;SDS011;4364;52.426;9.424;2023-08-12T10:54:21;8.53;;;7.73;;
8652;SDS011;4364;52.426;9.424;2023-08-12T11:02:17;8.73;;;7.63;;
8652;SDS011;4364;52.426;9.424;2023-08-12T11:07:29;9.45;;;7.35;;
8652;SDS011;4364;52.426;9.424;2023-08-12T11:12:36;8.30;;;6.20;;
8652;SDS011;4364;52.426;9.424;2023-08-12T11:15:05;7.07;;;6.38;;
8652;SDS011;4364;52.426;9.424;2023-08-12T11:17:41;6.90;;;6.03;;
8652;SDS011;4364;52.426;9.424;2023-08-12T11:20:10;7.05;;;6.30;;
8652;SDS011;4364;52.426;9.424;2023-08-12T11:22:38;8.48;;;6.18;;
8652;SDS011;4364;52.426;9.424;2023-08-12T11:25:12;6.97;;;6.20;;
8652;SDS011;4364;52.426;9.424;2023-08-12T11:27:41;7.30;;;6.60;;
8652;SDS011;4364;52.426;9.424;2023-08-12T11:30:08;8.50;;;6.25;;
8652;SDS011;4364;52.426;9.424;2023-08-12T11:32:37;7.63;;;6.00;;
8652;SDS011;4364;52.426;9.424;2023-08-12T11:35:08;6.90;;;5.50;;
8652;SDS011;4364;52.426;9.424;2023-08-12T11:37:36;7.00;;;6.07;;
8652;SDS011;4364;52.426;9.424;2023-08-12T11:40:04;8.15;;;6.93;;
8652;SDS011;4364;52.426;9.424;2023-08-12T11:42:31;7.40;;;6.63;;
8652;SDS011;4364;52.426;9.424;2023-08-12T11:44:58;7.07;;;6.05;;
8652;SDS011;4364;52.426;9.424;2023-08-12T11:47:25;6.63;;;6.00;;
8652;SDS011;4364;52.426;9.424;2023-08-12T11:49:52;7.05;;;5.88;;
8652;SDS011;4364;52.426;9.424;2023-08-12T11:52:20;6.88;;;6.05;;
8652;SDS011;4364;52.426;9.424;2023-08-12T11:54:47;8.10;;;5.65;;
8652;SDS011;4364;52.426;9.424;2023-08-12T11:57:15;7.68;;;5.95;;
8652;SDS011;4364;52.426;9.424;2023-08-12T11:59:43;6.80;;;6.10;;
8652;SDS011;4364;52.426;9.424;2023-08-12T12:02:10;6.65;;;5.78;;
8652;SDS011;4364;52.426;9.424;2023-08-12T12:04:40;6.13;;;5.63;;
8652;SDS011;4364;52.426;9.424;2023-08-12T12:07:18;6.63;;;5.93;;
8652;SDS011;4364;52.426;9.424;2023-08-12T12:09:45;6.90;;;5.90;;
8652;SDS011;4364;52.426;9.424;2023-08-12T12:12:12;7.10;;;6.13;;
8652;SDS011;4364;52.426;9.424;2023-08-12T12:14:39;8.57;;;6.07;;
8652;SDS011;4364;52.426;9.424;2023-08-12T12:17:08;6.65;;;5.80;;
8652;SDS011;4364;52.426;9.424;2023-08-12T12:19:39;8.70;;;6.67;;
8652;SDS011;4364;52.426;9.424;2023-08-12T12:22:06;6.40;;;5.80;;
8652;SDS011;4364;52.426;9.424;2023-08-12T12:24:43;8.38;;;6.47;;
8652;SDS011;4364;52.426;9.424;2023-08-12T12:27:15;7.38;;;5.88;;
8652;SDS011;4364;52.426;9.424;2023-08-12T12:29:41;6.60;;;5.95;;
8652;SDS011;4364;52.426;9.424;2023-08-12T12:32:08;6.10;;;5.50;;
8652;SDS011;4364;52.426;9.424;2023-08-12T12:34:37;5.90;;;5.40;;
8652;SDS011;4364;52.426;9.424;2023-08-12T12:37:04;5.50;;;4.95;;
8652;SDS011;4364;52.426;9.424;2023-08-12T12:39:30;5.50;;;4.18;;
8652;SDS011;4364;52.426;9.424;2023-08-12T12:41:57;4.65;;;4.00;;
8652;SDS011;4364;52.426;9.424;2023-08-12T12:44:26;5.45;;;4.65;;
8652;SDS011;4364;52.426;9.424;2023-08-12T12:46:53;7.68;;;3.85;;
8652;SDS011;4364;52.426;9.424;2023-08-12T12:49:19;4.50;;;3.70;;
8652;SDS011;4364;52.426;9.424;2023-08-12T12:51:46;3.00;;;2.70;;
8652;SDS011;4364;52.426;9.424;2023-08-12T12:54:13;3.60;;;2.83;;
8652;SDS011;4364;52.426;9.424;2023-08-12T12:56:39;2.90;;;2.55;;
8652;SDS011;4364;52.426;9.424;2023-08-12T12:59:06;2.60;;;2.40;;
8652;SDS011;4364;52.426;9.424;2023-08-12T13:01:32;2.67;;;2.10;;
8652;SDS011;4364;52.426;9.424;2023-08-12T13:03:59;2.58;;;2.15;;
8652;SDS011;4364;52.426;9.424;2023-08-12T13:06:26;2.08;;;1.80;;
8652;SDS011;4364;52.426;9.424;2023-08-12T13:08:52;2.28;;;2.00;;
8652;SDS011;4364;52.426;9.424;2023-08-12T13:11:19;2.40;;;2.10;;
8652;SDS011;4364;52.426;9.424;2023-08-12T13:13:45;3.15;;;2.00;;
8652;SDS011;4364;52.426;9.424;2023-08-12T13:16:12;2.70;;;1.90;;
8652;SDS011;4364;52.426;9.424;2023-08-12T13:18:38;2.42;;;1.88;;
8652;SDS011;4364;52.426;9.424;2023-08-12T13:21:05;3.97;;;2.10;;
8652;SDS011;4364;52.426;9.424;2023-08-12T13:23:31;1.80;;;1.60;;
8652;SDS011;4364;52.426;9.424;2023-08-12T13:25:59;2.67;;;2.00;;
8652;SDS011;4364;52.426;9.424;2023-08-12T13:28:25;1.80;;;1.70;;
8652;SDS011;4364;52.426;9.424;2023-08-12T13:30:52;2.30;;;2.10;;
8652;SDS011;4364;52.426;9.424;2023-08-12T13:33:18;1.88;;;1.77;;
8652;SDS011;4364;52.426;9.424;2023-08-12T13:35:44;2.57;;;2.20;;
8652;SDS011;4364;52.426;9.424;2023-08-12T13:38:11;1.63;;;1.53;;
8652;SDS011;4364;52.426;9.424;2023-08-12T13:40:37;1.80;;;1.70;;
8652;SDS011;4364;52.426;9.424;2023-08-12T13:43:04;2.08;;;1.90;;
8652;SDS011;4364;52.426;9.424;2023-08-12T13:45:30;1.88;;;1.70;;
8652;SDS011;4364;52.426;9.424;2023-08-12T13:47:57;2.30;;;2.10;;
8652;SDS011;4364;52.426;9.424;2023-08-12T13:50:24;2.65;;;2.10;;
8652;SDS011;4364;52.426;9.424;2023-08-12T13:52:50;4.13;;;3.70;;
8652;SDS011;4364;52.426;9.424;2023-08-12T13:55:17;3.35;;;2.42;;
8652;SDS011;4364;52.426;9.424;2023-08-12T13:57:43;2.17;;;1.90;;
8652;SDS011;4364;52.426;9.424;2023-08-12T14:00:10;2.43;;;2.23;;
8652;SDS011;4364;52.426;9.424;2023-08-12T14:02:41;2.07;;;1.97;;
8652;SDS011;4364;52.426;9.424;2023-08-12T14:05:08;2.77;;;2.07;;
8652;SDS011;4364;52.426;9.424;2023-08-12T14:07:37;2.50;;;2.30;;
8652;SDS011;4364;52.426;9.424;2023-08-12T14:10:04;3.60;;;2.47;;
8652;SDS011;4364;52.426;9.424;2023-08-12T14:12:31;2.50;;;2.30;;
8652;SDS011;4364;52.426;9.424;2023-08-12T14:14:57;4.53;;;3.23;;
8652;SDS011;4364;52.426;9.424;2023-08-12T14:17:24;3.60;;;2.90;;
8652;SDS011;4364;52.426;9.424;2023-08-12T14:19:52;3.27;;;3.00;;
8652;SDS011;4364;52.426;9.424;2023-08-12T14:22:19;3.13;;;2.93;;
8652;SDS011;4364;52.426;9.424;2023-08-12T14:24:47;3.70;;;3.40;;
8652;SDS011;4364;52.426;9.424;2023-08-12T14:27:16;3.60;;;3.30;;
8652;SDS011;4364;52.426;9.424;2023-08-12T14:29:46;4.33;;;3.70;;
8652;SDS011;4364;52.426;9.424;2023-08-12T14:32:12;3.50;;;3.20;;
8652;SDS011;4364;52.426;9.424;2023-08-12T14:34:42;4.23;;;2.93;;
8652;SDS011;4364;52.426;9.424;2023-08-12T14:37:11;3.50;;;3.20;;
8652;SDS011;4364;52.426;9.424;2023-08-12T14:39:38;4.70;;;3.30;;
8652;SDS011;4364;52.426;9.424;2023-08-12T14:42:05;4.87;;;4.47;;
8652;SDS011;4364;52.426;9.424;2023-08-12T14:44:32;4.63;;;3.97;;
8652;SDS011;4364;52.426;9.424;2023-08-12T14:47:02;4.50;;;4.10;;
8652;SDS011;4364;52.426;9.424;2023-08-12T14:49:30;3.80;;;3.50;;
8652;SDS011;4364;52.426;9.424;2023-08-12T14:51:56;4.57;;;4.17;;
8652;SDS011;4364;52.426;9.424;2023-08-12T14:54:23;5.10;;;4.63;;
8652;SDS011;4364;52.426;9.424;2023-08-12T14:56:49;6.70;;;6.10;;
8652;SDS011;4364;52.426;9.424;2023-08-12T14:59:16;5.53;;;5.03;;
8652;SDS011;4364;52.426;9.424;2023-08-12T15:01:42;5.57;;;5.07;;
8652;SDS011;4364;52.426;9.424;2023-08-12T15:04:09;5.47;;;5.05;;
8652;SDS011;4364;52.426;9.424;2023-08-12T15:06:35;5.20;;;4.80;;
8652;SDS011;4364;52.426;9.424;2023-08-12T15:09:02;4.80;;;4.40;;
8652;SDS011;4364;52.426;9.424;2023-08-12T15:11:29;4.68;;;4.00;;
8652;SDS011;4364;52.426;9.424;2023-08-12T15:13:55;3.80;;;3.33;;
8652;SDS011;4364;52.426;9.424;2023-08-12T15:16:22;4.77;;;4.37;;
8652;SDS011;4364;52.426;9.424;2023-08-12T15:18:48;5.50;;;4.00;;
8652;SDS011;4364;52.426;9.424;2023-08-12T15:21:15;3.78;;;3.47;;